sensor_id;sensor_type;location;lat;lon;timestamp;P1;durP1;ratioP1;P2;durP2;ratioP2
7003;SDS011;3542;48.812;9.146;2022-12-20T00:01:12;36.13;;;22.03;;
7003;SDS011;3542;48.812;9.146;2022-12-20T00:03:42;36.23;;;20.63;;
7003;SDS011;3542;48.812;9.146;2022-12-20T00:06:08;31.83;;;19.30;;
7003;SDS011;3542;48.812;9.146;2022-12-20T00:08:35;34.23;;;20.77;;
7003;SDS011;3542;48.812;9.146;2022-12-20T00:11:01;32.13;;;19.33;;
7003;SDS011;3542;48.812;9.146;2022-12-20T00:13:29;31.43;;;20.13;;
7003;SDS011;3542;48.812;9.146;2022-12-20T00:16:14;34.77;;;20.43;;
7003;SDS011;3542;48.812;9.146;2022-12-20T00:18:42;31.07;;;18.67;;
7003;SDS011;3542;48.812;9.146;2022-12-20T00:21:09;35.30;;;20.80;;
7003;SDS011;3542;48.812;9.146;2022-12-20T00:23:37;35.20;;;19.47;;
7003;SDS011;3542;48.812;9.146;2022-12-20T00:26:04;31.13;;;18.63;;
7003;SDS011;3542;48.812;9.146;2022-12-20T00:28:35;31.73;;;17.93;;
7003;SDS011;3542;48.812;9.146;2022-12-20T00:31:01;23.93;;;16.93;;
7003;SDS011;3542;48.812;9.146;2022-12-20T00:33:28;27.70;;;17.50;;
7003;SDS011;3542;48.812;9.146;2022-12-20T00:35:54;28.43;;;18.33;;
7003;SDS011;3542;48.812;9.146;2022-12-20T00:38:21;24.27;;;17.10;;
7003;SDS011;3542;48.812;9.146;2022-12-20T00:40:57;30.37;;;16.80;;
7003;SDS011;3542;48.812;9.146;2022-12-20T00:43:27;28.90;;;17.43;;
7003;SDS011;3542;48.812;9.146;2022-12-20T00:45:53;28.00;;;17.50;;
7003;SDS011;3542;48.812;9.146;2022-12-20T00:48:19;24.17;;;16.83;;
7003;SDS011;3542;48.812;9.146;2022-12-20T00:50:44;27.17;;;16.50;;
7003;SDS011;3542;48.812;9.146;2022-12-20T00:53:10;25.63;;;17.43;;
7003;SDS011;3542;48.812;9.146;2022-12-20T00:55:45;23.20;;;14.97;;
7003;SDS011;3542;48.812;9.146;2022-12-20T00:58:11;28.13;;;16.23;;
7003;SDS011;3542;48.812;9.146;2022-12-20T01:00:37;21.27;;;15.07;;
7003;SDS011;3542;48.812;9.146;2022-12-20T01:03:04;26.43;;;16.60;;
7003;SDS011;3542;48.812;9.146;2022-12-20T01:05:29;28.73;;;17.70;;
7003;SDS011;3542;48.812;9.146;2022-12-20T01:07:55;24.80;;;16.90;;
7003;SDS011;3542;48.812;9.146;2022-12-20T01:10:21;26.07;;;17.27;;
7003;SDS011;3542;48.812;9.146;2022-12-20T01:12:46;25.33;;;16.10;;
7003;SDS011;3542;48.812;9.146;2022-12-20T01:15:12;23.13;;;15.67;;
7003;SDS011;3542;48.812;9.146;2022-12-20T01:17:38;25.13;;;15.57;;
7003;SDS011;3542;48.812;9.146;2022-12-20T01:20:04;23.13;;;16.00;;
7003;SDS011;3542;48.812;9.146;2022-12-20T01:22:30;24.17;;;15.40;;
7003;SDS011;3542;48.812;9.146;2022-12-20T01:24:55;22.20;;;15.27;;
7003;SDS011;3542;48.812;9.146;2022-12-20T01:27:21;23.10;;;16.70;;
7003;SDS011;3542;48.812;9.146;2022-12-20T01:29:47;22.40;;;14.47;;
7003;SDS011;3542;48.812;9.146;2022-12-20T01:32:12;22.90;;;15.70;;
7003;SDS011;3542;48.812;9.146;2022-12-20T01:34:38;28.03;;;17.50;;
7003;SDS011;3542;48.812;9.146;2022-12-20T01:37:03;20.47;;;15.33;;
7003;SDS011;3542;48.812;9.146;2022-12-20T01:39:29;18.43;;;13.83;;
7003;SDS011;3542;48.812;9.146;2022-12-20T01:41:54;23.63;;;15.70;;
7003;SDS011;3542;48.812;9.146;2022-12-20T01:46:46;20.07;;;15.70;;
7003;SDS011;3542;48.812;9.146;2022-12-20T01:52:02;23.27;;;15.93;;
7003;SDS011;3542;48.812;9.146;2022-12-20T01:54:47;29.57;;;14.77;;
7003;SDS011;3542;48.812;9.146;2022-12-20T01:57:18;31.03;;;15.37;;
7003;SDS011;3542;48.812;9.146;2022-12-20T01:59:46;21.27;;;14.83;;
7003;SDS011;3542;48.812;9.146;2022-12-20T03:32:51;16.30;;;10.53;;
7003;SDS011;3542;48.812;9.146;2022-12-20T03:35:17;15.77;;;10.93;;
7003;SDS011;3542;48.812;9.146;2022-12-20T03:37:42;17.90;;;10.80;;
7003;SDS011;3542;48.812;9.146;2022-12-20T03:40:08;14.60;;;10.80;;
7003;SDS011;3542;48.812;9.146;2022-12-20T03:42:34;21.00;;;10.77;;
7003;SDS011;3542;48.812;9.146;2022-12-20T03:45:00;12.33;;;9.87;;
7003;SDS011;3542;48.812;9.146;2022-12-20T03:47:27;14.07;;;11.00;;
7003;SDS011;3542;48.812;9.146;2022-12-20T03:49:52;15.90;;;10.70;;
7003;SDS011;3542;48.812;9.146;2022-12-20T03:52:18;16.43;;;10.70;;
7003;SDS011;3542;48.812;9.146;2022-12-20T03:54:43;14.23;;;10.37;;
7003;SDS011;3542;48.812;9.146;2022-12-20T03:57:09;16.90;;;12.40;;
7003;SDS011;3542;48.812;9.146;2022-12-20T03:59:35;16.80;;;10.83;;
7003;SDS011;3542;48.812;9.146;2022-12-20T04:02:01;17.47;;;10.97;;
7003;SDS011;3542;48.812;9.146;2022-12-20T04:04:27;20.60;;;13.77;;
7003;SDS011;3542;48.812;9.146;2022-12-20T04:06:53;19.07;;;12.57;;
7003;SDS011;3542;48.812;9.146;2022-12-20T04:09:18;22.60;;;12.73;;
7003;SDS011;3542;48.812;9.146;2022-12-20T04:11:44;20.97;;;14.77;;
7003;SDS011;3542;48.812;9.146;2022-12-20T04:14:09;19.27;;;13.43;;
7003;SDS011;3542;48.812;9.146;2022-12-20T04:16:35;20.60;;;14.33;;
7003;SDS011;3542;48.812;9.146;2022-12-20T04:19:00;16.80;;;12.60;;
7003;SDS011;3542;48.812;9.146;2022-12-20T04:21:27;15.20;;;11.20;;
7003;SDS011;3542;48.812;9.146;2022-12-20T04:23:54;23.90;;;14.07;;
7003;SDS011;3542;48.812;9.146;2022-12-20T04:26:20;22.47;;;12.90;;
7003;SDS011;3542;48.812;9.146;2022-12-20T04:28:46;18.50;;;13.13;;
7003;SDS011;3542;48.812;9.146;2022-12-20T04:31:12;21.70;;;13.83;;
7003;SDS011;3542;48.812;9.146;2022-12-20T04:33:37;17.57;;;12.90;;
7003;SDS011;3542;48.812;9.146;2022-12-20T04:36:03;18.10;;;13.13;;
7003;SDS011;3542;48.812;9.146;2022-12-20T04:38:29;20.20;;;13.00;;
7003;SDS011;3542;48.812;9.146;2022-12-20T04:40:55;17.90;;;12.50;;
7003;SDS011;3542;48.812;9.146;2022-12-20T04:43:21;19.20;;;12.70;;
7003;SDS011;3542;48.812;9.146;2022-12-20T04:45:48;15.50;;;12.27;;
7003;SDS011;3542;48.812;9.146;2022-12-20T04:48:16;22.23;;;12.70;;
7003;SDS011;3542;48.812;9.146;2022-12-20T04:50:42;17.80;;;12.97;;
7003;SDS011;3542;48.812;9.146;2022-12-20T04:53:11;21.40;;;13.10;;
7003;SDS011;3542;48.812;9.146;2022-12-20T04:55:57;18.67;;;12.30;;
7003;SDS011;3542;48.812;9.146;2022-12-20T04:58:23;16.67;;;11.47;;
7003;SDS011;3542;48.812;9.146;2022-12-20T05:00:49;19.13;;;12.20;;
7003;SDS011;3542;48.812;9.146;2022-12-20T05:03:16;21.37;;;12.23;;
7003;SDS011;3542;48.812;9.146;2022-12-20T05:05:43;17.27;;;11.87;;
7003;SDS011;3542;48.812;9.146;2022-12-20T05:08:08;18.40;;;11.90;;
7003;SDS011;3542;48.812;9.146;2022-12-20T05:10:34;19.47;;;12.20;;
7003;SDS011;3542;48.812;9.146;2022-12-20T05:12:59;26.30;;;13.97;;
7003;SDS011;3542;48.812;9.146;2022-12-20T05:15:25;21.27;;;12.47;;
7003;SDS011;3542;48.812;9.146;2022-12-20T05:17:50;16.27;;;11.43;;
7003;SDS011;3542;48.812;9.146;2022-12-20T05:20:16;17.00;;;12.00;;
7003;SDS011;3542;48.812;9.146;2022-12-20T05:22:42;17.30;;;11.50;;
7003;SDS011;3542;48.812;9.146;2022-12-20T05:25:26;15.43;;;11.80;;
7003;SDS011;3542;48.812;9.146;2022-12-20T05:28:10;17.40;;;11.90;;
7003;SDS011;3542;48.812;9.146;2022-12-20T05:30:35;18.23;;;11.73;;
7003;SDS011;3542;48.812;9.146;2022-12-20T05:33:01;17.33;;;12.27;;
7003;SDS011;3542;48.812;9.146;2022-12-20T05:35:27;15.67;;;11.37;;
7003;SDS011;3542;48.812;9.146;2022-12-20T05:37:52;25.23;;;13.37;;
7003;SDS011;3542;48.812;9.146;2022-12-20T05:40:18;23.33;;;11.57;;
7003;SDS011;3542;48.812;9.146;2022-12-20T05:42:44;18.83;;;11.77;;
7003;SDS011;3542;48.812;9.146;2022-12-20T05:45:09;17.60;;;12.87;;
7003;SDS011;3542;48.812;9.146;2022-12-20T05:47:35;19.93;;;12.30;;
7003;SDS011;3542;48.812;9.146;2022-12-20T05:50:01;20.53;;;13.17;;
7003;SDS011;3542;48.812;9.146;2022-12-20T05:52:28;17.73;;;11.90;;
7003;SDS011;3542;48.812;9.146;2022-12-20T05:54:53;21.23;;;14.60;;
7003;SDS011;3542;48.812;9.146;2022-12-20T05:57:19;20.10;;;13.50;;
7003;SDS011;3542;48.812;9.146;2022-12-20T05:59:45;24.60;;;13.10;;
7003;SDS011;3542;48.812;9.146;2022-12-20T06:02:10;20.30;;;12.30;;
7003;SDS011;3542;48.812;9.146;2022-12-20T06:04:36;18.20;;;12.47;;
7003;SDS011;3542;48.812;9.146;2022-12-20T06:07:02;23.03;;;13.17;;
7003;SDS011;3542;48.812;9.146;2022-12-20T06:09:29;17.37;;;12.03;;
7003;SDS011;3542;48.812;9.146;2022-12-20T06:11:55;18.43;;;12.27;;
7003;SDS011;3542;48.812;9.146;2022-12-20T06:14:21;22.63;;;12.83;;
7003;SDS011;3542;48.812;9.146;2022-12-20T06:16:46;19.27;;;12.30;;
7003;SDS011;3542;48.812;9.146;2022-12-20T06:19:12;21.10;;;12.80;;
7003;SDS011;3542;48.812;9.146;2022-12-20T06:21:38;25.10;;;12.40;;
7003;SDS011;3542;48.812;9.146;2022-12-20T06:24:04;37.00;;;13.43;;
7003;SDS011;3542;48.812;9.146;2022-12-20T06:26:29;34.10;;;13.93;;
7003;SDS011;3542;48.812;9.146;2022-12-20T06:29:00;33.63;;;12.80;;
7003;SDS011;3542;48.812;9.146;2022-12-20T06:31:26;33.10;;;13.33;;
7003;SDS011;3542;48.812;9.146;2022-12-20T06:33:51;20.30;;;13.70;;
7003;SDS011;3542;48.812;9.146;2022-12-20T06:36:17;17.97;;;12.20;;
7003;SDS011;3542;48.812;9.146;2022-12-20T06:38:42;22.70;;;12.90;;
7003;SDS011;3542;48.812;9.146;2022-12-20T06:41:08;20.23;;;13.50;;
7003;SDS011;3542;48.812;9.146;2022-12-20T06:43:33;18.40;;;12.13;;
7003;SDS011;3542;48.812;9.146;2022-12-20T06:45:59;15.93;;;12.00;;
7003;SDS011;3542;48.812;9.146;2022-12-20T06:48:24;16.57;;;12.10;;
7003;SDS011;3542;48.812;9.146;2022-12-20T06:50:50;16.43;;;11.27;;
7003;SDS011;3542;48.812;9.146;2022-12-20T06:53:15;16.43;;;11.70;;
7003;SDS011;3542;48.812;9.146;2022-12-20T06:55:41;18.87;;;13.40;;
7003;SDS011;3542;48.812;9.146;2022-12-20T06:58:07;27.87;;;18.13;;
7003;SDS011;3542;48.812;9.146;2022-12-20T07:00:33;16.60;;;11.40;;
7003;SDS011;3542;48.812;9.146;2022-12-20T07:02:58;17.27;;;11.40;;
7003;SDS011;3542;48.812;9.146;2022-12-20T07:05:24;18.87;;;12.20;;
7003;SDS011;3542;48.812;9.146;2022-12-20T07:07:50;18.30;;;13.27;;
7003;SDS011;3542;48.812;9.146;2022-12-20T07:10:15;20.33;;;11.93;;
7003;SDS011;3542;48.812;9.146;2022-12-20T07:12:41;21.37;;;13.03;;
7003;SDS011;3542;48.812;9.146;2022-12-20T07:15:07;19.50;;;12.53;;
7003;SDS011;3542;48.812;9.146;2022-12-20T07:17:33;14.50;;;11.20;;
7003;SDS011;3542;48.812;9.146;2022-12-20T07:19:58;18.30;;;11.63;;
7003;SDS011;3542;48.812;9.146;2022-12-20T07:22:24;21.13;;;12.17;;
7003;SDS011;3542;48.812;9.146;2022-12-20T07:24:50;18.07;;;12.57;;
7003;SDS011;3542;48.812;9.146;2022-12-20T07:27:16;19.17;;;11.67;;
7003;SDS011;3542;48.812;9.146;2022-12-20T07:29:42;16.40;;;10.70;;
7003;SDS011;3542;48.812;9.146;2022-12-20T07:32:08;17.20;;;12.00;;
7003;SDS011;3542;48.812;9.146;2022-12-20T07:34:35;15.57;;;11.53;;
7003;SDS011;3542;48.812;9.146;2022-12-20T07:37:01;18.00;;;11.83;;
7003;SDS011;3542;48.812;9.146;2022-12-20T07:39:27;22.10;;;11.83;;
7003;SDS011;3542;48.812;9.146;2022-12-20T07:41:53;17.53;;;11.83;;
7003;SDS011;3542;48.812;9.146;2022-12-20T07:44:19;23.10;;;11.87;;
7003;SDS011;3542;48.812;9.146;2022-12-20T07:46:46;19.37;;;12.27;;
7003;SDS011;3542;48.812;9.146;2022-12-20T07:49:11;20.60;;;11.17;;
7003;SDS011;3542;48.812;9.146;2022-12-20T07:51:38;22.70;;;12.03;;
7003;SDS011;3542;48.812;9.146;2022-12-20T07:54:11;21.10;;;12.73;;
7003;SDS011;3542;48.812;9.146;2022-12-20T07:56:42;23.77;;;12.97;;
7003;SDS011;3542;48.812;9.146;2022-12-20T07:59:15;27.13;;;13.40;;
7003;SDS011;3542;48.812;9.146;2022-12-20T08:01:44;20.30;;;13.50;;
7003;SDS011;3542;48.812;9.146;2022-12-20T08:04:12;26.20;;;12.90;;
7003;SDS011;3542;48.812;9.146;2022-12-20T08:06:41;20.77;;;13.60;;
7003;SDS011;3542;48.812;9.146;2022-12-20T08:09:07;14.90;;;12.33;;
7003;SDS011;3542;48.812;9.146;2022-12-20T08:11:39;14.70;;;11.07;;
7003;SDS011;3542;48.812;9.146;2022-12-20T08:14:09;21.20;;;12.27;;
7003;SDS011;3542;48.812;9.146;2022-12-20T08:16:35;17.43;;;12.07;;
7003;SDS011;3542;48.812;9.146;2022-12-20T08:19:00;17.10;;;12.20;;
7003;SDS011;3542;48.812;9.146;2022-12-20T08:21:26;16.00;;;11.40;;
7003;SDS011;3542;48.812;9.146;2022-12-20T08:23:53;17.03;;;12.20;;
7003;SDS011;3542;48.812;9.146;2022-12-20T08:26:18;16.40;;;12.20;;
7003;SDS011;3542;48.812;9.146;2022-12-20T08:28:44;17.37;;;11.80;;
7003;SDS011;3542;48.812;9.146;2022-12-20T08:31:10;21.43;;;12.30;;
7003;SDS011;3542;48.812;9.146;2022-12-20T08:33:36;16.33;;;11.07;;
7003;SDS011;3542;48.812;9.146;2022-12-20T08:36:05;24.25;;;12.00;;
7003;SDS011;3542;48.812;9.146;2022-12-20T08:38:33;15.80;;;11.00;;
7003;SDS011;3542;48.812;9.146;2022-12-20T08:41:06;19.47;;;10.93;;
7003;SDS011;3542;48.812;9.146;2022-12-20T08:43:34;19.20;;;11.37;;
7003;SDS011;3542;48.812;9.146;2022-12-20T08:46:00;14.00;;;10.37;;
7003;SDS011;3542;48.812;9.146;2022-12-20T08:48:26;18.70;;;10.17;;
7003;SDS011;3542;48.812;9.146;2022-12-20T08:50:56;18.70;;;10.73;;
7003;SDS011;3542;48.812;9.146;2022-12-20T08:53:24;17.43;;;11.00;;
7003;SDS011;3542;48.812;9.146;2022-12-20T08:55:51;16.40;;;10.43;;
7003;SDS011;3542;48.812;9.146;2022-12-20T08:58:17;13.80;;;10.07;;
7003;SDS011;3542;48.812;9.146;2022-12-20T09:00:43;16.27;;;9.97;;
7003;SDS011;3542;48.812;9.146;2022-12-20T09:03:09;14.00;;;9.93;;
7003;SDS011;3542;48.812;9.146;2022-12-20T09:05:35;13.33;;;9.70;;
7003;SDS011;3542;48.812;9.146;2022-12-20T09:08:07;19.90;;;11.67;;
7003;SDS011;3542;48.812;9.146;2022-12-20T09:10:32;15.53;;;10.07;;
7003;SDS011;3542;48.812;9.146;2022-12-20T09:12:58;14.63;;;11.27;;
7003;SDS011;3542;48.812;9.146;2022-12-20T09:15:23;16.43;;;8.80;;
7003;SDS011;3542;48.812;9.146;2022-12-20T09:17:51;17.73;;;10.90;;
7003;SDS011;3542;48.812;9.146;2022-12-20T09:20:17;12.47;;;9.07;;
7003;SDS011;3542;48.812;9.146;2022-12-20T09:22:42;15.77;;;10.33;;
7003;SDS011;3542;48.812;9.146;2022-12-20T09:25:08;16.80;;;9.73;;
7003;SDS011;3542;48.812;9.146;2022-12-20T09:27:33;13.50;;;9.50;;
7003;SDS011;3542;48.812;9.146;2022-12-20T09:29:59;23.60;;;10.20;;
7003;SDS011;3542;48.812;9.146;2022-12-20T09:32:24;13.40;;;10.30;;
7003;SDS011;3542;48.812;9.146;2022-12-20T09:34:50;12.30;;;9.10;;
7003;SDS011;3542;48.812;9.146;2022-12-20T09:37:15;12.57;;;8.90;;
7003;SDS011;3542;48.812;9.146;2022-12-20T09:39:41;13.17;;;9.83;;
7003;SDS011;3542;48.812;9.146;2022-12-20T09:42:06;15.53;;;9.97;;
7003;SDS011;3542;48.812;9.146;2022-12-20T09:44:34;16.80;;;9.03;;
7003;SDS011;3542;48.812;9.146;2022-12-20T09:47:03;18.43;;;9.73;;
7003;SDS011;3542;48.812;9.146;2022-12-20T09:49:32;25.30;;;16.30;;
7003;SDS011;3542;48.812;9.146;2022-12-20T09:57:50;13.83;;;8.70;;
7003;SDS011;3542;48.812;9.146;2022-12-20T10:00:20;16.33;;;8.10;;
7003;SDS011;3542;48.812;9.146;2022-12-20T10:02:46;15.27;;;8.27;;
7003;SDS011;3542;48.812;9.146;2022-12-20T10:05:14;11.33;;;7.20;;
7003;SDS011;3542;48.812;9.146;2022-12-20T10:13:36;12.53;;;7.30;;
7003;SDS011;3542;48.812;9.146;2022-12-20T10:16:32;13.30;;;7.10;;
7003;SDS011;3542;48.812;9.146;2022-12-20T10:24:17;13.13;;;7.60;;
7003;SDS011;3542;48.812;9.146;2022-12-20T10:26:45;53.83;;;10.00;;
7003;SDS011;3542;48.812;9.146;2022-12-20T10:29:14;61.90;;;8.20;;
7003;SDS011;3542;48.812;9.146;2022-12-20T10:31:40;68.57;;;8.00;;
7003;SDS011;3542;48.812;9.146;2022-12-20T10:34:06;68.93;;;9.33;;
7003;SDS011;3542;48.812;9.146;2022-12-20T10:36:32;58.77;;;12.07;;
7003;SDS011;3542;48.812;9.146;2022-12-20T10:39:01;156.27;;;101.77;;
7003;SDS011;3542;48.812;9.146;2022-12-20T10:46:48;93.47;;;19.50;;
7003;SDS011;3542;48.812;9.146;2022-12-20T10:49:22;60.93;;;9.10;;
7003;SDS011;3542;48.812;9.146;2022-12-20T10:51:57;90.93;;;12.17;;
7003;SDS011;3542;48.812;9.146;2022-12-20T10:54:44;21.00;;;9.40;;
7003;SDS011;3542;48.812;9.146;2022-12-20T10:57:16;21.70;;;10.53;;
7003;SDS011;3542;48.812;9.146;2022-12-20T10:59:43;21.57;;;10.30;;
7003;SDS011;3542;48.812;9.146;2022-12-20T11:02:20;25.00;;;10.70;;
7003;SDS011;3542;48.812;9.146;2022-12-20T11:07:34;22.13;;;9.20;;
7003;SDS011;3542;48.812;9.146;2022-12-20T11:10:21;25.90;;;9.03;;
7003;SDS011;3542;48.812;9.146;2022-12-20T11:17:57;24.70;;;11.03;;
7003;SDS011;3542;48.812;9.146;2022-12-20T11:20:29;32.57;;;13.23;;
7003;SDS011;3542;48.812;9.146;2022-12-20T11:31:39;25.30;;;10.43;;
7003;SDS011;3542;48.812;9.146;2022-12-20T11:51:01;19.63;;;9.80;;
7003;SDS011;3542;48.812;9.146;2022-12-20T11:53:42;23.10;;;8.60;;
7003;SDS011;3542;48.812;9.146;2022-12-20T11:56:20;17.87;;;7.60;;
7003;SDS011;3542;48.812;9.146;2022-12-20T11:59:01;21.43;;;8.50;;
7003;SDS011;3542;48.812;9.146;2022-12-20T12:01:36;18.70;;;9.30;;
7003;SDS011;3542;48.812;9.146;2022-12-20T12:04:14;32.43;;;11.10;;
7003;SDS011;3542;48.812;9.146;2022-12-20T12:06:47;23.23;;;10.20;;
7003;SDS011;3542;48.812;9.146;2022-12-20T12:11:59;21.03;;;8.67;;
7003;SDS011;3542;48.812;9.146;2022-12-20T12:17:08;20.07;;;7.83;;
7003;SDS011;3542;48.812;9.146;2022-12-20T12:19:42;28.13;;;14.67;;
7003;SDS011;3542;48.812;9.146;2022-12-20T12:22:14;61.33;;;31.63;;
7003;SDS011;3542;48.812;9.146;2022-12-20T12:24:47;25.63;;;13.73;;
7003;SDS011;3542;48.812;9.146;2022-12-20T12:27:23;17.87;;;10.67;;
7003;SDS011;3542;48.812;9.146;2022-12-20T12:29:51;13.50;;;8.83;;
7003;SDS011;3542;48.812;9.146;2022-12-20T12:32:28;22.87;;;10.50;;
7003;SDS011;3542;48.812;9.146;2022-12-20T12:35:07;15.43;;;8.97;;
7003;SDS011;3542;48.812;9.146;2022-12-20T12:43:06;10.07;;;8.37;;
7003;SDS011;3542;48.812;9.146;2022-12-20T12:45:47;13.47;;;7.80;;
7003;SDS011;3542;48.812;9.146;2022-12-20T12:51:00;13.63;;;8.70;;
7003;SDS011;3542;48.812;9.146;2022-12-20T12:56:28;12.50;;;8.53;;
7003;SDS011;3542;48.812;9.146;2022-12-20T13:07:24;15.13;;;7.20;;
7003;SDS011;3542;48.812;9.146;2022-12-20T13:15:02;8.90;;;6.77;;
7003;SDS011;3542;48.812;9.146;2022-12-20T13:21:15;9.77;;;6.50;;
7003;SDS011;3542;48.812;9.146;2022-12-20T13:26:53;10.47;;;7.53;;
7003;SDS011;3542;48.812;9.146;2022-12-20T13:29:26;11.00;;;7.73;;
7003;SDS011;3542;48.812;9.146;2022-12-20T13:31:56;9.73;;;7.03;;
7003;SDS011;3542;48.812;9.146;2022-12-20T13:34:36;10.70;;;6.77;;
7003;SDS011;3542;48.812;9.146;2022-12-20T13:37:23;12.60;;;7.83;;
7003;SDS011;3542;48.812;9.146;2022-12-20T13:39:50;11.50;;;7.47;;
7003;SDS011;3542;48.812;9.146;2022-12-20T13:42:26;15.70;;;8.80;;
7003;SDS011;3542;48.812;9.146;2022-12-20T13:45:00;13.57;;;8.70;;
7003;SDS011;3542;48.812;9.146;2022-12-20T13:47:33;15.20;;;10.40;;
7003;SDS011;3542;48.812;9.146;2022-12-20T13:50:29;11.00;;;8.20;;
7003;SDS011;3542;48.812;9.146;2022-12-20T13:53:04;14.10;;;8.60;;
7003;SDS011;3542;48.812;9.146;2022-12-20T13:55:32;12.30;;;8.43;;
7003;SDS011;3542;48.812;9.146;2022-12-20T13:58:03;16.20;;;8.47;;
7003;SDS011;3542;48.812;9.146;2022-12-20T14:00:49;15.37;;;9.63;;
7003;SDS011;3542;48.812;9.146;2022-12-20T14:03:18;9.97;;;7.97;;
7003;SDS011;3542;48.812;9.146;2022-12-20T14:05:44;14.37;;;8.43;;
7003;SDS011;3542;48.812;9.146;2022-12-20T14:08:14;16.63;;;8.63;;
7003;SDS011;3542;48.812;9.146;2022-12-20T14:10:42;12.63;;;8.83;;
7003;SDS011;3542;48.812;9.146;2022-12-20T14:13:18;12.17;;;8.83;;
7003;SDS011;3542;48.812;9.146;2022-12-20T14:15:45;13.70;;;8.77;;
7003;SDS011;3542;48.812;9.146;2022-12-20T14:18:15;13.07;;;8.47;;
7003;SDS011;3542;48.812;9.146;2022-12-20T14:20:49;14.30;;;7.97;;
7003;SDS011;3542;48.812;9.146;2022-12-20T14:23:18;10.80;;;7.93;;
7003;SDS011;3542;48.812;9.146;2022-12-20T14:25:48;15.63;;;8.00;;
7003;SDS011;3542;48.812;9.146;2022-12-20T14:28:28;21.10;;;8.20;;
7003;SDS011;3542;48.812;9.146;2022-12-20T14:31:22;16.77;;;8.10;;
7003;SDS011;3542;48.812;9.146;2022-12-20T14:33:50;11.03;;;8.13;;
7003;SDS011;3542;48.812;9.146;2022-12-20T14:36:24;12.80;;;8.33;;
7003;SDS011;3542;48.812;9.146;2022-12-20T14:38:50;19.20;;;12.00;;
7003;SDS011;3542;48.812;9.146;2022-12-20T14:41:30;18.67;;;9.80;;
7003;SDS011;3542;48.812;9.146;2022-12-20T14:43:56;18.73;;;10.67;;
7003;SDS011;3542;48.812;9.146;2022-12-20T14:46:25;15.70;;;9.53;;
7003;SDS011;3542;48.812;9.146;2022-12-20T14:49:08;13.80;;;9.40;;
7003;SDS011;3542;48.812;9.146;2022-12-20T14:51:43;13.80;;;8.57;;
7003;SDS011;3542;48.812;9.146;2022-12-20T14:54:15;12.30;;;8.80;;
7003;SDS011;3542;48.812;9.146;2022-12-20T14:56:44;13.40;;;9.50;;
7003;SDS011;3542;48.812;9.146;2022-12-20T14:59:14;15.43;;;10.10;;
7003;SDS011;3542;48.812;9.146;2022-12-20T15:01:42;16.07;;;11.03;;
7003;SDS011;3542;48.812;9.146;2022-12-20T15:06:56;19.10;;;10.87;;
7003;SDS011;3542;48.812;9.146;2022-12-20T15:09:22;18.50;;;11.73;;
7003;SDS011;3542;48.812;9.146;2022-12-20T15:11:48;14.20;;;10.50;;
7003;SDS011;3542;48.812;9.146;2022-12-20T15:14:24;13.00;;;8.93;;
7003;SDS011;3542;48.812;9.146;2022-12-20T15:16:53;16.30;;;10.50;;
7003;SDS011;3542;48.812;9.146;2022-12-20T15:19:18;18.47;;;10.93;;
7003;SDS011;3542;48.812;9.146;2022-12-20T15:21:44;20.33;;;11.23;;
7003;SDS011;3542;48.812;9.146;2022-12-20T15:24:14;12.70;;;10.23;;
7003;SDS011;3542;48.812;9.146;2022-12-20T15:26:42;16.53;;;10.37;;
7003;SDS011;3542;48.812;9.146;2022-12-20T15:29:11;19.37;;;10.40;;
7003;SDS011;3542;48.812;9.146;2022-12-20T15:31:40;18.17;;;12.10;;
7003;SDS011;3542;48.812;9.146;2022-12-20T15:34:13;19.47;;;12.67;;
7003;SDS011;3542;48.812;9.146;2022-12-20T15:36:44;16.90;;;9.50;;
7003;SDS011;3542;48.812;9.146;2022-12-20T15:39:09;12.03;;;9.50;;
7003;SDS011;3542;48.812;9.146;2022-12-20T15:41:36;13.53;;;9.47;;
7003;SDS011;3542;48.812;9.146;2022-12-20T15:44:09;11.73;;;9.33;;
7003;SDS011;3542;48.812;9.146;2022-12-20T15:46:40;17.03;;;9.87;;
7003;SDS011;3542;48.812;9.146;2022-12-20T15:49:11;14.63;;;9.20;;
7003;SDS011;3542;48.812;9.146;2022-12-20T15:51:41;14.03;;;10.07;;
7003;SDS011;3542;48.812;9.146;2022-12-20T15:54:12;14.00;;;10.13;;
7003;SDS011;3542;48.812;9.146;2022-12-20T15:56:45;12.40;;;10.27;;
7003;SDS011;3542;48.812;9.146;2022-12-20T15:59:11;18.80;;;10.50;;
7003;SDS011;3542;48.812;9.146;2022-12-20T16:01:37;16.70;;;9.03;;
7003;SDS011;3542;48.812;9.146;2022-12-20T16:04:04;10.70;;;9.60;;
7003;SDS011;3542;48.812;9.146;2022-12-20T16:06:30;16.13;;;10.47;;
7003;SDS011;3542;48.812;9.146;2022-12-20T16:08:56;18.70;;;11.67;;
7003;SDS011;3542;48.812;9.146;2022-12-20T16:11:26;15.00;;;10.03;;
7003;SDS011;3542;48.812;9.146;2022-12-20T16:13:53;15.20;;;9.10;;
7003;SDS011;3542;48.812;9.146;2022-12-20T16:16:22;16.63;;;10.73;;
7003;SDS011;3542;48.812;9.146;2022-12-20T16:18:49;15.53;;;9.93;;
7003;SDS011;3542;48.812;9.146;2022-12-20T16:21:18;14.23;;;9.03;;
7003;SDS011;3542;48.812;9.146;2022-12-20T16:23:46;12.87;;;9.60;;
7003;SDS011;3542;48.812;9.146;2022-12-20T16:26:14;12.30;;;10.03;;
7003;SDS011;3542;48.812;9.146;2022-12-20T16:28:41;12.20;;;9.10;;
7003;SDS011;3542;48.812;9.146;2022-12-20T16:31:23;12.77;;;9.90;;
7003;SDS011;3542;48.812;9.146;2022-12-20T16:33:55;14.37;;;12.73;;
7003;SDS011;3542;48.812;9.146;2022-12-20T16:36:21;17.07;;;12.00;;
7003;SDS011;3542;48.812;9.146;2022-12-20T16:38:47;18.60;;;11.20;;
7003;SDS011;3542;48.812;9.146;2022-12-20T16:43:42;28.40;;;13.70;;
7003;SDS011;3542;48.812;9.146;2022-12-20T16:46:09;21.70;;;13.00;;
7003;SDS011;3542;48.812;9.146;2022-12-20T16:48:36;16.53;;;11.77;;
7003;SDS011;3542;48.812;9.146;2022-12-20T16:51:02;17.10;;;10.83;;
7003;SDS011;3542;48.812;9.146;2022-12-20T16:53:27;15.80;;;10.40;;
7003;SDS011;3542;48.812;9.146;2022-12-20T16:55:53;16.93;;;10.60;;
7003;SDS011;3542;48.812;9.146;2022-12-20T16:58:19;20.93;;;11.23;;
7003;SDS011;3542;48.812;9.146;2022-12-20T17:00:45;12.90;;;9.30;;
7003;SDS011;3542;48.812;9.146;2022-12-20T17:03:11;16.30;;;10.87;;
7003;SDS011;3542;48.812;9.146;2022-12-20T17:05:37;18.53;;;12.47;;
7003;SDS011;3542;48.812;9.146;2022-12-20T17:08:03;15.97;;;10.07;;
7003;SDS011;3542;48.812;9.146;2022-12-20T17:10:30;20.13;;;10.80;;
7003;SDS011;3542;48.812;9.146;2022-12-20T17:12:56;16.90;;;11.20;;
7003;SDS011;3542;48.812;9.146;2022-12-20T17:15:23;20.47;;;10.47;;
7003;SDS011;3542;48.812;9.146;2022-12-20T17:17:51;16.10;;;10.37;;
7003;SDS011;3542;48.812;9.146;2022-12-20T17:20:17;13.20;;;10.97;;
7003;SDS011;3542;48.812;9.146;2022-12-20T17:22:49;16.90;;;10.93;;
7003;SDS011;3542;48.812;9.146;2022-12-20T17:25:18;19.77;;;13.00;;
7003;SDS011;3542;48.812;9.146;2022-12-20T17:27:49;16.13;;;12.30;;
7003;SDS011;3542;48.812;9.146;2022-12-20T17:30:15;16.43;;;10.97;;
7003;SDS011;3542;48.812;9.146;2022-12-20T17:32:42;26.97;;;14.23;;
7003;SDS011;3542;48.812;9.146;2022-12-20T17:35:19;23.63;;;12.80;;
7003;SDS011;3542;48.812;9.146;2022-12-20T17:37:49;24.03;;;12.60;;
7003;SDS011;3542;48.812;9.146;2022-12-20T17:40:18;23.30;;;12.67;;
7003;SDS011;3542;48.812;9.146;2022-12-20T17:42:43;14.30;;;10.53;;
7003;SDS011;3542;48.812;9.146;2022-12-20T17:45:23;20.10;;;12.03;;
7003;SDS011;3542;48.812;9.146;2022-12-20T17:47:51;16.80;;;11.80;;
7003;SDS011;3542;48.812;9.146;2022-12-20T17:50:18;18.10;;;12.07;;
7003;SDS011;3542;48.812;9.146;2022-12-20T17:52:44;18.83;;;13.90;;
7003;SDS011;3542;48.812;9.146;2022-12-20T17:55:17;17.30;;;11.60;;
7003;SDS011;3542;48.812;9.146;2022-12-20T17:57:45;16.40;;;11.07;;
7003;SDS011;3542;48.812;9.146;2022-12-20T18:00:15;13.57;;;9.97;;
7003;SDS011;3542;48.812;9.146;2022-12-20T18:02:42;14.07;;;9.67;;
7003;SDS011;3542;48.812;9.146;2022-12-20T18:05:09;13.50;;;9.90;;
7003;SDS011;3542;48.812;9.146;2022-12-20T18:07:36;13.77;;;9.30;;
7003;SDS011;3542;48.812;9.146;2022-12-20T18:10:01;15.77;;;9.50;;
7003;SDS011;3542;48.812;9.146;2022-12-20T18:12:27;16.00;;;10.53;;